Terminal Aerodrome Forecast
Issued by NWS Sterling, VA

Home | Current Version | Previous Version | Text Only | Print | Product List | Glossary On
Versions: 1 2 3 4 5 6 7 8 9 10 11 12 13 14 15 16 17 18 19 20 21 22 23
000
FTUS41 KLWX 231734
TAFDCA
TAF
KDCA 231734Z 2318/2424 01009KT P6SM SCT045
     FM232000 28013G21KT P6SM SCT250
     FM240300 27009KT P6SM FEW250
     FM241500 30012G19KT P6SM SCT050
     FM242200 31012KT P6SM SCT250=

USA.gov is the U.S. government's official web portal to all federal, state and local government web resources and services.